Time;durP1;ratioP1;P1;durP2;ratioP2;P2;SDS_P1;SDS_P2;PMS_P1;PMS_P2;Temp;Humidity;BMP_temperature;BMP_pressure;BME280_temperature;BME280_humidity;BME280_pressure;Samples;Min_cycle;Max_cycle;Signal;HPM_P1;HPM_P2
2023/08/10 00:02:46;;;;;;;0.57;0.52;;;25.70;62.20;;;;;;10469490;28;20686;-31
2023/08/10 00:07:48;;;;;;;1.45;0.73;;;25.70;62.20;;;;;;10475202;28;20440;-32
2023/08/10 00:12:51;;;;;;;1.67;0.65;;;25.70;62.30;;;;;;10488921;28;20481;-33
2023/08/10 00:17:53;;;;;;;1.02;0.70;;;25.60;62.10;;;;;;10490520;28;20052;-42
2023/08/10 00:22:55;;;;;;;0.85;0.60;;;25.60;62.30;;;;;;10478620;28;20109;-29
2023/08/10 00:27:58;;;;;;;0.85;0.60;;;25.60;62.40;;;;;;10486241;28;20048;-40
2023/08/10 00:33:01;;;;;;;2.95;1.13;;;25.50;62.40;;;;;;10474631;28;20049;-31
2023/08/10 00:38:03;;;;;;;1.27;0.50;;;25.50;62.50;;;;;;10464956;28;20076;-38
2023/08/10 00:43:06;;;;;;;0.68;0.50;;;25.50;62.60;;;;;;10477811;28;20056;-38
2023/08/10 00:48:08;;;;;;;1.45;0.50;;;25.50;62.70;;;;;;10477805;28;20118;-43
2023/08/10 00:53:10;;;;;;;1.33;0.63;;;25.40;62.60;;;;;;10460440;28;20115;-36
2023/08/10 00:58:13;;;;;;;1.98;0.50;;;25.40;62.60;;;;;;10472925;28;20058;-32
2023/08/10 01:03:16;;;;;;;0.80;0.50;;;25.40;62.80;;;;;;10493258;28;20072;-34
2023/08/10 01:08:25;;;;;;;0.70;0.43;;;25.30;62.70;;;;;;10470278;28;20044;-35
2023/08/10 01:13:39;;;;;;;0.73;0.40;;;25.30;62.80;;;;;;10475164;28;20091;-33
2023/08/10 01:18:42;;;;;;;1.40;0.65;;;25.30;62.90;;;;;;10468864;28;20085;-36
2023/08/10 01:23:49;;;;;;;0.70;0.55;;;25.20;62.80;;;;;;10474364;28;20087;-28
2023/08/10 01:28:52;;;;;;;2.00;0.80;;;25.20;62.90;;;;;;10470953;28;20478;-32
2023/08/10 01:33:54;;;;;;;2.50;0.75;;;25.20;63.00;;;;;;10464191;28;20470;-32
2023/08/10 01:38:56;;;;;;;0.98;0.80;;;25.20;63.00;;;;;;10460224;28;20057;-35
2023/08/10 01:43:59;;;;;;;1.88;0.70;;;25.20;63.00;;;;;;10469270;28;20095;-34
2023/08/10 01:49:02;;;;;;;1.20;0.88;;;25.10;63.20;;;;;;10469158;28;20040;-32
2023/08/10 01:54:06;;;;;;;2.25;0.70;;;25.10;63.20;;;;;;10468705;28;20044;-38
2023/08/10 01:59:09;;;;;;;1.08;0.77;;;25.10;63.30;;;;;;10479861;28;20141;-31
2023/08/10 02:04:11;;;;;;;1.38;0.70;;;25.10;63.20;;;;;;10473983;28;20087;-33
2023/08/10 02:09:13;;;;;;;0.88;0.73;;;25.10;63.30;;;;;;10483516;28;20048;-32
2023/08/10 02:14:16;;;;;;;2.33;0.90;;;25.00;63.30;;;;;;10476308;28;20122;-34
2023/08/10 02:19:18;;;;;;;0.85;0.85;;;25.00;63.50;;;;;;10464632;28;20048;-36
2023/08/10 02:24:20;;;;;;;1.00;0.90;;;25.00;63.40;;;;;;10473132;28;20044;-35
2023/08/10 02:29:23;;;;;;;1.65;1.25;;;24.90;63.50;;;;;;10488051;28;20555;-32
2023/08/10 02:34:25;;;;;;;1.10;1.00;;;24.90;63.50;;;;;;10470930;28;20048;-40
2023/08/10 02:39:27;;;;;;;2.28;1.30;;;24.90;63.60;;;;;;10472296;28;20131;-37
2023/08/10 02:44:30;;;;;;;1.95;1.00;;;24.90;63.70;;;;;;10469122;28;20045;-36
2023/08/10 02:49:32;;;;;;;1.52;0.90;;;24.90;63.80;;;;;;10475378;28;20432;-36
2023/08/10 02:54:34;;;;;;;1.10;0.98;;;24.90;63.80;;;;;;10474365;28;20550;-35
2023/08/10 03:15:31;;;;;;;1.25;1.00;;;24.70;63.90;;;;;;10601795;27;20113;-32
2023/08/10 03:20:33;;;;;;;1.25;0.90;;;24.70;64.30;;;;;;10568325;28;20035;-34
2023/08/10 03:25:34;;;;;;;;;;;24.70;64.30;;;;;;10567467;28;20122;-36
2023/08/10 03:30:40;;;;;;;1.17;0.90;;;24.60;64.40;;;;;;10568647;28;19973;-30
2023/08/10 03:35:42;;;;;;;1.50;0.98;;;24.70;64.30;;;;;;10563154;28;20146;-32
2023/08/10 03:40:43;;;;;;;2.55;1.30;;;24.60;64.40;;;;;;10570159;28;20073;-34
2023/08/10 03:45:46;;;;;;;;;;;24.60;64.40;;;;;;10568020;28;20687;-33
2023/08/10 03:50:49;;;;;;;1.27;1.00;;;24.60;64.50;;;;;;10566645;28;19948;-33
2023/08/10 03:55:51;;;;;;;2.05;0.93;;;24.60;64.60;;;;;;10562494;28;20488;-32
2023/08/10 04:00:54;;;;;;;1.83;0.95;;;24.60;64.60;;;;;;10567896;28;20512;-32
2023/08/10 04:05:56;;;;;;;1.95;0.80;;;24.60;64.60;;;;;;10568594;28;20132;-37
2023/08/10 04:10:58;;;;;;;;;;;24.60;64.70;;;;;;10558406;28;20730;-31
2023/08/10 04:16:01;;;;;;;0.80;0.73;;;24.60;64.70;;;;;;10560146;28;19966;-31
2023/08/10 04:21:03;;;;;;;1.20;0.90;;;24.60;64.70;;;;;;10574910;28;20039;-35
2023/08/10 04:26:05;;;;;;;1.88;0.80;;;24.60;64.70;;;;;;10545201;28;20072;-36
2023/08/10 04:31:08;;;;;;;;;;;24.50;64.70;;;;;;10538013;28;20083;-32
2023/08/10 04:36:11;;;;;;;1.52;1.00;;;24.50;64.80;;;;;;10533950;28;19920;-32
2023/08/10 04:41:13;;;;;;;0.73;0.60;;;24.50;64.80;;;;;;10536636;28;20093;-39
2023/08/10 04:46:16;;;;;;;1.05;0.80;;;24.50;64.80;;;;;;10539757;28;20097;-37
2023/08/10 04:51:18;;;;;;;1.08;0.60;;;24.50;64.90;;;;;;10532875;28;20423;-41
2023/08/10 04:56:19;;;;;;;;;;;24.50;64.90;;;;;;10537954;28;20151;-31
2023/08/10 05:01:23;;;;;;;0.95;0.70;;;24.50;65.00;;;;;;10539542;28;19950;-29
2023/08/10 05:06:24;;;;;;;0.95;0.60;;;24.50;65.00;;;;;;10523678;28;20184;-32
2023/08/10 05:11:26;;;;;;;0.65;0.60;;;24.50;65.10;;;;;;10535338;28;20732;-39
2023/08/10 05:16:29;;;;;;;;;;;24.50;65.10;;;;;;10536441;28;20105;-36
2023/08/10 05:21:31;;;;;;;1.27;0.68;;;24.40;65.10;;;;;;10538032;28;19973;-31
2023/08/10 05:26:33;;;;;;;0.90;0.75;;;24.50;65.10;;;;;;10532846;28;20117;-35
2023/08/10 05:31:37;;;;;;;1.13;0.70;;;24.50;65.20;;;;;;10533281;28;20542;-39
2023/08/10 05:36:39;;;;;;;2.65;0.65;;;24.40;65.20;;;;;;10531981;28;20097;-33
2023/08/10 05:41:40;;;;;;;;;;;24.50;65.20;;;;;;10538066;28;20077;-36
2023/08/10 05:46:43;;;;;;;1.98;0.60;;;24.50;65.40;;;;;;10528357;28;19993;-40
2023/08/10 05:51:45;;;;;;;1.50;0.70;;;24.50;65.30;;;;;;10534122;28;20075;-37
2023/08/10 05:56:47;;;;;;;0.95;0.50;;;24.50;65.20;;;;;;10534538;28;20048;-32
2023/08/10 06:01:50;;;;;;;;;;;24.50;65.20;;;;;;10532265;28;20086;-35
2023/08/10 06:06:52;;;;;;;1.00;0.70;;;24.50;65.20;;;;;;10528701;28;19927;-31
2023/08/10 06:11:54;;;;;;;;;;;24.30;65.80;;;;;;10531105;28;20091;-34
2023/08/10 06:16:57;;;;;;;2.10;0.88;;;24.30;65.40;;;;;;10530769;28;19951;-33
2023/08/10 06:21:59;;;;;;;0.60;0.40;;;24.40;65.40;;;;;;10535918;28;20134;-35
2023/08/10 06:27:01;;;;;;;;;;;24.20;66.40;;;;;;10540731;28;20141;-31
2023/08/10 06:32:07;;;;;;;1.65;0.60;;;23.90;66.90;;;;;;10539570;28;20007;-37
2023/08/10 06:37:10;;;;;;;1.05;0.68;;;24.30;65.80;;;;;;10542905;28;20070;-32
2023/08/10 06:42:11;;;;;;;0.90;0.60;;;24.40;65.40;;;;;;10534150;28;20062;-31
2023/08/10 06:47:15;;;;;;;;;;;24.30;65.90;;;;;;10544230;28;20101;-37
2023/08/10 06:52:16;;;;;;;3.83;1.88;;;24.30;65.70;;;;;;10536366;28;19970;-35
2023/08/10 06:57:18;;;;;;;;;;;24.00;65.60;;;;;;10546774;28;20072;-40
2023/08/10 07:02:21;;;;;;;1.00;0.60;;;24.30;66.00;;;;;;10530968;28;19920;-34
2023/08/10 07:07:24;;;;;;;1.80;1.17;;;24.20;66.00;;;;;;10529492;28;20500;-31
2023/08/10 07:12:25;;;;;;;0.70;0.63;;;24.20;65.00;;;;;;10532611;28;20581;-32
2023/08/10 07:17:28;;;;;;;;;;;24.00;67.00;;;;;;10524787;28;20124;-31
2023/08/10 07:22:31;;;;;;;5.85;1.90;;;23.50;68.50;;;;;;10526540;28;20010;-30
2023/08/10 07:27:33;;;;;;;7.22;2.60;;;22.80;69.30;;;;;;10529867;28;20496;-35
2023/08/10 07:32:37;;;;;;;4.30;2.55;;;21.70;71.00;;;;;;10524438;28;20389;-34
2023/08/10 07:37:40;;;;;;;1.73;1.63;;;21.30;74.10;;;;;;10531769;28;20048;-34
2023/08/10 07:42:42;;;;;;;7.05;2.83;;;22.20;74.80;;;;;;10515750;28;20048;-32
2023/08/10 07:47:45;;;;;;;2.08;0.80;;;23.10;70.20;;;;;;10529551;28;20055;-31
2023/08/10 07:52:47;;;;;;;2.00;0.90;;;23.00;71.50;;;;;;10524128;28;20135;-33
2023/08/10 07:57:51;;;;;;;1.02;0.93;;;22.70;73.00;;;;;;10531859;28;20083;-34
2023/08/10 08:02:54;;;;;;;7.72;4.03;;;22.60;73.30;;;;;;10536856;28;20101;-34
2023/08/10 08:07:56;;;;;;;1.90;0.70;;;22.70;70.00;;;;;;10538008;28;20485;-35
2023/08/10 08:12:57;;;;;;;;;;;23.60;70.00;;;;;;10532745;28;20056;-39
2023/08/10 08:18:42;;;;;;;10.80;3.93;;;23.70;67.70;;;;;;10536241;28;19964;-33
2023/08/10 08:23:44;;;;;;;3.13;2.35;;;22.40;73.10;;;;;;10536425;28;20094;-34
2023/08/10 08:28:47;;;;;;;4.10;2.80;;;23.80;68.30;;;;;;10536417;28;20051;-32
2023/08/10 08:33:51;;;;;;;4.82;2.72;;;24.40;66.60;;;;;;10519196;28;20131;-32
2023/08/10 08:38:53;;;;;;;3.20;1.33;;;23.60;66.00;;;;;;10507996;28;20412;-30
2023/08/10 08:43:56;;;;;;;2.67;1.58;;;24.10;69.50;;;;;;10520210;28;20139;-35
2023/08/10 08:49:01;;;;;;;1.60;1.00;;;24.00;66.90;;;;;;10538310;28;20050;-31
2023/08/10 08:54:04;;;;;;;1.60;0.82;;;24.40;67.50;;;;;;10527368;28;20770;-38
2023/08/10 08:59:05;;;;;;;3.83;1.63;;;24.30;67.70;;;;;;10539233;28;20398;-32
2023/08/10 09:04:08;;;;;;;;;;;24.30;67.50;;;;;;10525098;28;21863;-32
2023/08/10 09:09:10;;;;;;;1.98;0.98;;;24.50;66.60;;;;;;10523901;28;20353;-35
2023/08/10 09:14:13;;;;;;;2.33;1.80;;;24.30;67.60;;;;;;10534023;28;20083;-31
2023/08/10 09:19:18;;;;;;;2.22;1.33;;;24.10;65.50;;;;;;10532785;28;20075;-32
2023/08/10 09:24:20;;;;;;;2.47;1.50;;;23.80;68.10;;;;;;10536206;28;20553;-31
2023/08/10 09:29:29;;;;;;;;;;;22.90;70.90;;;;;;10544262;28;20110;-31
2023/08/10 09:34:32;;;;;;;4.07;1.73;;;22.60;70.50;;;;;;10533690;28;20353;-36
2023/08/10 09:39:34;;;;;;;1.65;1.15;;;22.70;68.30;;;;;;10526405;28;20044;-34
2023/08/10 09:44:43;;;;;;;;;;;23.00;71.60;;;;;;10535602;28;20071;-33
2023/08/10 09:49:55;;;;;;;4.43;1.50;;;23.20;68.30;;;;;;10526104;28;20261;-31
2023/08/10 09:54:58;;;;;;;1.95;1.05;;;22.80;71.30;;;;;;10530858;28;20108;-39
2023/08/10 10:00:00;;;;;;;1.92;1.00;;;23.00;67.60;;;;;;10540382;28;20039;-37
2023/08/10 10:05:06;;;;;;;1.85;0.98;;;23.10;70.70;;;;;;10539390;28;20101;-35
2023/08/10 10:10:13;;;;;;;1.67;0.80;;;23.30;67.50;;;;;;10532262;28;20500;-32
2023/08/10 10:15:17;;;;;;;3.22;1.77;;;23.90;68.90;;;;;;10526915;28;20621;-36
2023/08/10 10:20:21;;;;;;;0.98;0.80;;;24.50;64.40;;;;;;10518556;28;20056;-36
2023/08/10 10:25:24;;;;;;;1.00;0.80;;;24.30;66.70;;;;;;10508445;28;20083;-34
2023/08/10 10:30:26;;;;;;;1.17;0.60;;;24.50;66.60;;;;;;10526449;28;20052;-38
2023/08/10 10:35:32;;;;;;;4.63;1.20;;;24.90;64.50;;;;;;10525127;28;20066;-38
2023/08/10 10:40:34;;;;;;;2.75;1.10;;;24.00;63.60;;;;;;10529388;28;20097;-35
2023/08/10 10:45:37;;;;;;;3.08;1.60;;;23.80;65.20;;;;;;10530329;28;20040;-36
2023/08/10 10:50:41;;;;;;;2.63;1.00;;;23.50;65.90;;;;;;10520069;28;20052;-35
2023/08/10 10:55:43;;;;;;;3.83;1.33;;;23.60;68.10;;;;;;10536201;28;20044;-35
2023/08/10 11:00:46;;;;;;;1.15;0.63;;;24.80;65.30;;;;;;10533672;28;20078;-32
2023/08/10 11:05:49;;;;;;;3.38;1.73;;;24.70;66.00;;;;;;10530580;28;20063;-33
2023/08/10 11:10:51;;;;;;;1.60;1.50;;;25.10;60.80;;;;;;10528962;28;20105;-32
2023/08/10 11:15:53;;;;;;;1.10;0.70;;;24.60;63.40;;;;;;10530025;28;20084;-38
2023/08/10 11:20:57;;;;;;;1.60;0.70;;;25.40;63.40;;;;;;10529897;28;20101;-33
2023/08/10 11:26:02;;;;;;;2.13;0.82;;;25.40;62.60;;;;;;10536843;28;20470;-38
2023/08/10 11:31:04;;;;;;;4.00;1.30;;;25.80;60.70;;;;;;10522192;28;20037;-37
2023/08/10 11:36:07;;;;;;;1.58;0.88;;;25.40;57.60;;;;;;10532039;28;20040;-31
2023/08/10 11:41:09;;;;;;;1.20;1.00;;;24.90;61.90;;;;;;10533109;28;20048;-33
2023/08/10 11:46:11;;;;;;;0.70;0.70;;;25.60;62.30;;;;;;10530342;28;20051;-34
2023/08/10 11:51:17;;;;;;;1.70;0.60;;;25.70;61.90;;;;;;10539892;28;20202;-32
2023/08/10 11:56:19;;;;;;;2.38;0.85;;;25.80;61.80;;;;;;10530693;28;20048;-36
2023/08/10 12:01:21;;;;;;;2.35;1.15;;;26.30;59.30;;;;;;10535885;28;20102;-40
2023/08/10 12:06:25;;;;;;;4.22;1.10;;;26.10;56.60;;;;;;10540970;28;20121;-32
2023/08/10 12:11:27;;;;;;;3.03;1.40;;;26.20;59.00;;;;;;10534682;28;20048;-31
2023/08/10 12:16:29;;;;;;;2.58;1.65;;;26.60;57.90;;;;;;10535528;28;20510;-38
2023/08/10 12:21:32;;;;;;;3.08;2.13;;;26.10;57.00;;;;;;10536018;28;20067;-32
2023/08/10 12:26:34;;;;;;;1.02;0.70;;;26.40;57.50;;;;;;10536416;28;20131;-31
2023/08/10 12:31:36;;;;;;;1.80;0.90;;;26.60;58.80;;;;;;10527073;28;20040;-32
2023/08/10 12:36:39;;;;;;;4.38;1.33;;;27.00;57.40;;;;;;10535777;28;20051;-35
2023/08/10 12:41:41;;;;;;;1.50;0.80;;;27.20;56.60;;;;;;10527664;28;20095;-32
2023/08/10 12:46:43;;;;;;;2.47;1.08;;;27.00;58.60;;;;;;10536794;28;20080;-31
2023/08/10 12:51:46;;;;;;;3.13;1.33;;;27.00;57.90;;;;;;10519696;28;20048;-34
2023/08/10 12:56:48;;;;;;;3.83;1.67;;;27.40;56.40;;;;;;10534941;28;20109;-34
2023/08/10 13:01:51;;;;;;;4.03;1.42;;;26.80;57.00;;;;;;10532925;28;20047;-30
2023/08/10 13:06:55;;;;;;;4.13;1.90;;;27.30;56.60;;;;;;10526803;28;20114;-33
2023/08/10 13:11:57;;;;;;;4.55;1.55;;;27.30;54.50;;;;;;10524502;28;20482;-37
2023/08/10 13:16:59;;;;;;;2.58;1.13;;;27.50;56.70;;;;;;10530086;28;20088;-36
2023/08/10 13:22:02;;;;;;;1.67;1.15;;;27.90;57.70;;;;;;10531352;28;20060;-35
2023/08/10 13:27:05;;;;;;;1.83;1.02;;;28.40;55.00;;;;;;10527369;28;20795;-34
2023/08/10 13:32:08;;;;;;;4.38;1.52;;;28.10;57.40;;;;;;10537357;28;20048;-29
2023/08/10 13:37:12;;;;;;;2.95;1.75;;;28.30;55.80;;;;;;10517360;28;20048;-31
2023/08/10 13:42:13;;;;;;;5.75;1.83;;;28.50;56.10;;;;;;10512677;28;20055;-34
2023/08/10 13:47:15;;;;;;;1.55;1.02;;;28.50;57.90;;;;;;10521178;28;20071;-43
2023/08/10 13:52:18;;;;;;;2.92;1.20;;;28.30;56.50;;;;;;10524306;28;20072;-35
2023/08/10 13:57:20;;;;;;;2.25;1.15;;;28.70;56.00;;;;;;10526506;28;20058;-34
2023/08/10 14:02:24;;;;;;;4.95;1.90;;;29.70;54.40;;;;;;10534325;28;20052;-33
2023/08/10 14:07:27;;;;;;;3.55;1.23;;;29.20;53.20;;;;;;10528489;28;20083;-38
2023/08/10 14:12:29;;;;;;;5.20;1.80;;;29.60;55.50;;;;;;10518849;28;20055;-33
2023/08/10 14:17:32;;;;;;;7.45;1.88;;;29.50;53.10;;;;;;10530263;28;20055;-35
2023/08/10 14:22:36;;;;;;;6.35;1.50;;;29.30;53.20;;;;;;10534595;28;20173;-35
2023/08/10 14:27:37;;;;;;;3.47;1.60;;;30.10;52.90;;;;;;10531489;28;20044;-32
2023/08/10 14:32:39;;;;;;;1.60;1.05;;;30.50;52.70;;;;;;10531150;28;20044;-37
2023/08/10 14:37:42;;;;;;;9.38;1.40;;;30.40;53.80;;;;;;10534186;28;20104;-33
2023/08/10 14:42:44;;;;;;;2.90;1.38;;;30.80;51.50;;;;;;10527607;28;20043;-32
2023/08/10 14:47:58;;;;;;;3.97;1.17;;;30.60;52.90;;;;;;10527792;28;20130;-34
2023/08/10 14:53:01;;;;;;;2.65;1.35;;;31.50;52.90;;;;;;10520125;28;20044;-33
2023/08/10 14:58:03;;;;;;;1.80;1.05;;;31.40;51.70;;;;;;10529656;28;20070;-35
2023/08/10 15:03:05;;;;;;;7.10;1.75;;;31.90;49.70;;;;;;10530164;28;20052;-39
2023/08/10 15:08:09;;;;;;;3.22;1.30;;;31.40;51.60;;;;;;10526172;28;20035;-40
2023/08/10 15:13:11;;;;;;;2.45;0.88;;;31.10;54.90;;;;;;10528447;28;20056;-41
2023/08/10 15:18:13;;;;;;;3.53;1.55;;;31.50;51.70;;;;;;10529650;28;20071;-38
2023/08/10 15:23:17;;;;;;;3.55;1.08;;;32.00;49.80;;;;;;10533733;28;20056;-34
2023/08/10 15:28:20;;;;;;;1.10;0.98;;;31.60;51.90;;;;;;10529799;28;20128;-34
2023/08/10 15:33:22;;;;;;;1.38;0.98;;;32.10;49.50;;;;;;10510620;28;20134;-32
2023/08/10 15:38:25;;;;;;;2.10;0.93;;;31.90;52.90;;;;;;10531086;28;20074;-38
2023/08/10 15:43:27;;;;;;;4.20;1.92;;;32.20;51.60;;;;;;10528029;28;20052;-36
2023/08/10 15:48:28;;;;;;;3.40;2.08;;;32.50;47.80;;;;;;10529104;28;20139;-34
2023/08/10 15:53:31;;;;;;;3.30;1.20;;;32.30;48.90;;;;;;10525316;28;20137;-38
2023/08/10 15:58:33;;;;;;;0.90;0.80;;;32.00;51.20;;;;;;10536397;28;20110;-35
2023/08/10 16:03:36;;;;;;;2.58;1.45;;;32.40;51.60;;;;;;10526862;28;20529;-33
2023/08/10 16:08:39;;;;;;;7.38;1.60;;;32.10;49.10;;;;;;10528551;28;20044;-33
2023/08/10 16:13:41;;;;;;;1.95;1.23;;;33.50;47.30;;;;;;10528414;28;20095;-33
2023/08/10 16:18:43;;;;;;;6.85;1.75;;;33.70;49.80;;;;;;10530179;28;20468;-31
2023/08/10 16:23:46;;;;;;;2.38;0.88;;;33.90;47.20;;;;;;10527460;28;20101;-33
2023/08/10 16:28:48;;;;;;;1.27;0.95;;;33.90;48.00;;;;;;10527171;28;20054;-32
2023/08/10 16:33:50;;;;;;;4.97;1.60;;;34.30;48.10;;;;;;10527535;28;20058;-33
2023/08/10 16:38:53;;;;;;;1.83;0.80;;;34.10;43.40;;;;;;10526011;28;20059;-32
2023/08/10 16:43:55;;;;;;;2.17;1.30;;;33.40;49.70;;;;;;10525715;28;20148;-32
2023/08/10 16:48:57;;;;;;;4.05;1.10;;;33.60;49.80;;;;;;10530384;28;20113;-38
2023/08/10 16:54:00;;;;;;;2.97;0.95;;;33.70;49.70;;;;;;10539779;28;20063;-32
2023/08/10 16:59:03;;;;;;;3.45;0.90;;;33.10;51.20;;;;;;10528380;28;20493;-35
2023/08/10 17:04:05;;;;;;;1.48;0.70;;;32.90;50.70;;;;;;10528529;28;20048;-34
2023/08/10 17:09:08;;;;;;;2.42;0.82;;;33.60;52.00;;;;;;10532257;28;20079;-36
2023/08/10 17:14:12;;;;;;;2.35;0.90;;;33.70;49.30;;;;;;10523784;28;20600;-34
2023/08/10 17:19:13;;;;;;;1.73;0.85;;;33.40;50.10;;;;;;10536920;28;20128;-31
2023/08/10 17:24:17;;;;;;;5.45;2.08;;;32.70;51.40;;;;;;10527816;28;20063;-32
2023/08/10 17:29:19;;;;;;;2.33;1.20;;;33.10;52.50;;;;;;10528286;28;20492;-29
2023/08/10 17:34:21;;;;;;;3.72;0.93;;;34.10;45.40;;;;;;10518810;28;20197;-33
2023/08/10 17:39:25;;;;;;;2.47;0.82;;;33.60;48.20;;;;;;10520484;28;20048;-37
2023/08/10 17:44:27;;;;;;;1.35;0.80;;;34.70;49.00;;;;;;10528569;28;20063;-34
2023/08/10 17:49:29;;;;;;;0.85;0.75;;;33.10;51.00;;;;;;10531993;28;20843;-36
2023/08/10 17:54:32;;;;;;;1.92;0.50;;;33.10;53.70;;;;;;10527489;28;20051;-36
2023/08/10 17:59:34;;;;;;;2.35;0.80;;;33.30;51.30;;;;;;10518427;28;20142;-40
2023/08/10 18:04:35;;;;;;;0.88;0.80;;;33.20;51.50;;;;;;10530946;28;20109;-35
2023/08/10 18:09:39;;;;;;;1.00;0.70;;;32.80;52.20;;;;;;10534888;28;20079;-32
2023/08/10 18:14:41;;;;;;;1.15;0.70;;;32.80;52.00;;;;;;10527962;28;20147;-37
2023/08/10 18:19:42;;;;;;;1.73;0.80;;;32.60;52.10;;;;;;10528554;28;20150;-34
2023/08/10 18:24:46;;;;;;;2.03;0.90;;;32.60;52.00;;;;;;10531007;28;20147;-33
2023/08/10 18:29:49;;;;;;;1.65;0.90;;;32.60;52.90;;;;;;10532783;28;20047;-38
2023/08/10 18:34:52;;;;;;;1.88;0.93;;;32.50;52.40;;;;;;10527808;28;20052;-38
2023/08/10 18:39:55;;;;;;;1.35;0.70;;;32.50;52.40;;;;;;10520274;28;20047;-39
2023/08/10 18:45:00;;;;;;;1.80;0.85;;;32.40;52.50;;;;;;10527976;28;20152;-37
2023/08/10 18:50:02;;;;;;;1.95;1.10;;;32.30;52.70;;;;;;10527109;28;20048;-38
2023/08/10 18:55:08;;;;;;;1.25;1.00;;;32.30;52.80;;;;;;10524677;28;20040;-37
2023/08/10 19:00:12;;;;;;;0.90;0.70;;;32.20;52.90;;;;;;10511557;28;20113;-38
2023/08/10 19:05:15;;;;;;;1.13;0.73;;;32.10;53.00;;;;;;10516598;28;20126;-32
2023/08/10 19:10:18;;;;;;;0.88;0.80;;;32.00;53.30;;;;;;10523472;28;20501;-35
2023/08/10 19:15:20;;;;;;;1.00;0.70;;;31.90;53.40;;;;;;10527453;28;20147;-33
2023/08/10 19:20:22;;;;;;;1.20;0.70;;;31.80;53.60;;;;;;10530701;28;20083;-41
2023/08/10 19:25:25;;;;;;;3.35;1.08;;;31.70;53.70;;;;;;10528305;28;20092;-32
2023/08/10 19:30:27;;;;;;;1.35;1.17;;;31.60;53.90;;;;;;10522360;28;20082;-36
2023/08/10 19:35:29;;;;;;;1.10;0.70;;;31.50;54.00;;;;;;10518287;28;20496;-39
2023/08/10 19:40:32;;;;;;;1.42;1.17;;;31.40;54.30;;;;;;10522866;28;20077;-37
2023/08/10 19:45:34;;;;;;;2.28;1.10;;;31.30;54.70;;;;;;10528971;28;20052;-38
2023/08/10 19:50:36;;;;;;;3.67;1.58;;;31.20;54.70;;;;;;10525375;28;20138;-38
2023/08/10 19:55:39;;;;;;;1.45;0.77;;;31.10;54.80;;;;;;10529241;28;20140;-33
2023/08/10 20:00:43;;;;;;;3.85;1.00;;;31.10;54.90;;;;;;10534917;28;20131;-35
2023/08/10 20:05:45;;;;;;;1.30;0.82;;;31.00;55.20;;;;;;10531421;28;20063;-33
2023/08/10 20:10:48;;;;;;;2.28;0.88;;;30.90;55.40;;;;;;10527619;28;20143;-39
2023/08/10 20:15:51;;;;;;;1.15;0.90;;;30.80;55.50;;;;;;10531842;28;20051;-43
2023/08/10 20:20:53;;;;;;;2.28;1.05;;;30.70;55.70;;;;;;10540899;28;20058;-35
2023/08/10 20:25:56;;;;;;;2.08;1.08;;;30.60;55.80;;;;;;10522530;28;20048;-45
2023/08/10 20:30:58;;;;;;;3.05;1.40;;;30.50;56.00;;;;;;10495936;28;20078;-39
2023/08/10 20:36:00;;;;;;;2.95;1.10;;;30.40;56.10;;;;;;10532848;28;20054;-37
2023/08/10 20:41:04;;;;;;;3.58;0.80;;;30.40;56.30;;;;;;10515780;28;20115;-36
2023/08/10 20:46:20;;;;;;;1.50;1.15;;;30.30;56.40;;;;;;10528999;28;20088;-40
2023/08/10 20:51:22;;;;;;;1.65;1.10;;;30.20;56.50;;;;;;10524882;28;20135;-41
2023/08/10 20:56:26;;;;;;;1.38;0.70;;;30.10;56.70;;;;;;10532273;28;20070;-32
2023/08/10 21:01:28;;;;;;;2.20;1.00;;;30.00;56.80;;;;;;10540608;28;20044;-38
2023/08/10 21:06:30;;;;;;;2.03;1.15;;;29.90;56.90;;;;;;10538455;28;20136;-36
2023/08/10 21:11:34;;;;;;;3.78;1.45;;;29.90;57.10;;;;;;10533182;28;20496;-34
2023/08/10 21:16:36;;;;;;;3.75;1.00;;;29.80;57.20;;;;;;10533103;28;20048;-39
2023/08/10 21:21:38;;;;;;;1.20;0.85;;;29.70;57.40;;;;;;10534655;28;20524;-40
2023/08/10 21:26:42;;;;;;;2.28;1.17;;;29.70;57.50;;;;;;10529923;28;20039;-31
2023/08/10 21:31:44;;;;;;;1.52;1.05;;;29.60;57.60;;;;;;10528980;28;20056;-34
2023/08/10 21:36:46;;;;;;;2.67;1.42;;;29.50;57.70;;;;;;10529816;28;20087;-41
2023/08/10 21:41:49;;;;;;;2.80;1.30;;;29.50;57.80;;;;;;10528843;28;20071;-39
2023/08/10 21:46:51;;;;;;;2.97;1.30;;;29.40;57.90;;;;;;10508529;28;20135;-34
2023/08/10 21:51:53;;;;;;;4.32;1.95;;;29.30;58.60;;;;;;10519364;28;20644;-34
2023/08/10 21:56:56;;;;;;;2.05;1.23;;;29.30;58.10;;;;;;10520925;28;20127;-34
2023/08/10 22:01:58;;;;;;;2.33;1.40;;;29.20;58.20;;;;;;10526704;28;20097;-33
2023/08/10 22:07:00;;;;;;;2.20;1.20;;;29.20;58.30;;;;;;10532074;28;20078;-37
2023/08/10 22:12:06;;;;;;;1.23;1.00;;;29.20;58.40;;;;;;10525903;28;20085;-38
2023/08/10 22:17:08;;;;;;;1.30;1.13;;;29.10;58.50;;;;;;10517920;28;20071;-36
2023/08/10 22:22:12;;;;;;;2.58;1.40;;;29.10;58.60;;;;;;10527280;28;20496;-36
2023/08/10 22:27:15;;;;;;;2.97;1.80;;;29.00;58.70;;;;;;10535094;28;20036;-38
2023/08/10 22:32:17;;;;;;;2.83;1.33;;;28.90;58.80;;;;;;10527745;28;20068;-34
2023/08/10 22:37:19;;;;;;;2.35;1.27;;;28.90;58.90;;;;;;10528787;28;20175;-35
2023/08/10 22:42:22;;;;;;;1.88;1.23;;;28.80;59.00;;;;;;10530887;28;20493;-39
2023/08/10 22:47:24;;;;;;;1.70;1.60;;;28.80;59.20;;;;;;10531177;28;20043;-35
2023/08/10 22:52:26;;;;;;;3.03;1.40;;;28.70;59.30;;;;;;10532140;28;20676;-37
2023/08/10 22:57:29;;;;;;;3.50;1.30;;;28.70;59.50;;;;;;10528346;28;20050;-34
2023/08/10 23:02:31;;;;;;;1.38;1.17;;;28.60;59.50;;;;;;10534447;28;20047;-35
2023/08/10 23:07:33;;;;;;;3.03;1.77;;;28.60;59.70;;;;;;10529179;28;20048;-36
2023/08/10 23:12:36;;;;;;;2.05;1.40;;;28.50;59.80;;;;;;10527115;28;20079;-37
2023/08/10 23:17:38;;;;;;;1.88;1.35;;;28.50;60.00;;;;;;10527557;28;20766;-28
2023/08/10 23:22:40;;;;;;;3.42;1.52;;;28.50;60.00;;;;;;10528056;28;20122;-34
2023/08/10 23:27:44;;;;;;;1.42;1.33;;;28.40;60.10;;;;;;10526098;28;20105;-36
2023/08/10 23:32:46;;;;;;;3.75;1.25;;;28.40;60.30;;;;;;10535733;28;20050;-34
2023/08/10 23:37:48;;;;;;;1.50;1.40;;;28.30;60.30;;;;;;10535520;28;20131;-35
2023/08/10 23:42:51;;;;;;;2.58;1.52;;;28.30;60.50;;;;;;10537575;28;20058;-32
2023/08/10 23:47:54;;;;;;;2.35;1.60;;;28.30;60.70;;;;;;10538616;28;20040;-41
2023/08/10 23:52:56;;;;;;;2.55;1.45;;;28.30;60.80;;;;;;10540237;28;20036;-34
2023/08/10 23:57:59;;;;;;;1.30;1.20;;;28.20;60.90;;;;;;10543006;28;20098;-30
